createdAt,value
2022-08-11T00:01:24.518Z,2.93
2022-08-11T00:04:00.664Z,2.97
2022-08-11T00:06:39.290Z,3.00
2022-08-11T00:09:16.410Z,2.90
2022-08-11T00:11:58.673Z,3.17
2022-08-11T00:14:36.948Z,3.07
2022-08-11T00:17:14.720Z,2.90
2022-08-11T00:20:14.239Z,3.30
2022-08-11T00:22:47.624Z,2.97
2022-08-11T00:25:22.124Z,2.70
2022-08-11T00:27:54.499Z,3.07
2022-08-11T00:30:39.241Z,2.90
2022-08-11T00:33:11.768Z,3.07
2022-08-11T00:35:50.868Z,2.80
2022-08-11T00:38:35.763Z,2.87
2022-08-11T00:41:31.856Z,2.87
2022-08-11T00:44:50.104Z,3.10
2022-08-11T00:48:11.250Z,3.17
2022-08-11T00:51:08.703Z,3.30
2022-08-11T00:54:43.513Z,2.93
2022-08-11T00:57:56.698Z,3.30
2022-08-11T01:01:09.333Z,2.97
2022-08-11T01:04:28.350Z,3.00
2022-08-11T01:08:00.574Z,2.80
2022-08-11T01:10:53.538Z,2.80
2022-08-11T01:14:14.106Z,3.33
2022-08-11T01:17:43.366Z,3.47
2022-08-11T01:20:49.455Z,3.50
2022-08-11T01:23:56.292Z,3.10
2022-08-11T01:27:29.698Z,3.43
2022-08-11T01:30:40.517Z,2.90
2022-08-11T01:34:05.529Z,3.10
2022-08-11T01:37:25.021Z,3.20
2022-08-11T01:40:35.757Z,3.10
2022-08-11T01:44:25.276Z,3.33
2022-08-11T01:47:58.913Z,3.50
2022-08-11T01:50:47.593Z,3.13
2022-08-11T01:54:13.066Z,3.37
2022-08-11T01:57:04.990Z,3.40
2022-08-11T02:00:09.611Z,3.37
2022-08-11T02:02:48.071Z,2.83
2022-08-11T02:05:50.530Z,3.57
2022-08-11T02:09:04.033Z,3.40
2022-08-11T02:11:49.514Z,3.33
2022-08-11T02:15:12.117Z,3.70
2022-08-11T02:18:24.298Z,3.63
2022-08-11T02:21:40.601Z,3.67
2022-08-11T02:24:50.447Z,4.10
2022-08-11T02:27:47.320Z,3.90
2022-08-11T02:30:27.933Z,2.83
2022-08-11T02:33:30.418Z,3.90
2022-08-11T02:36:24.436Z,3.60
2022-08-11T02:39:14.998Z,4.00
2022-08-11T02:42:42.471Z,3.87
2022-08-11T02:45:54.790Z,3.30
2022-08-11T02:49:19.353Z,3.27
2022-08-11T02:52:37.979Z,4.03
2022-08-11T02:55:48.826Z,3.27
2022-08-11T02:59:26.518Z,3.40
2022-08-11T03:02:43.244Z,3.63
2022-08-11T03:05:45.340Z,4.10
2022-08-11T03:08:52.524Z,4.00
2022-08-11T03:12:15.128Z,3.67
2022-08-11T03:16:01.291Z,3.37
2022-08-11T03:19:16.049Z,3.37
2022-08-11T03:22:10.624Z,4.17
2022-08-11T03:25:31.543Z,4.00
2022-08-11T03:28:22.008Z,3.63
2022-08-11T03:31:25.176Z,4.50
2022-08-11T03:34:08.409Z,4.10
2022-08-11T03:37:17.349Z,4.80
2022-08-11T03:40:42.074Z,4.30
2022-08-11T03:43:58.423Z,3.80
2022-08-11T03:47:10.373Z,4.47
2022-08-11T03:50:20.370Z,4.03
2022-08-11T03:53:39.513Z,4.18
2022-08-11T03:56:55.252Z,4.28
2022-08-11T04:00:03.053Z,4.37
2022-08-11T04:03:14.982Z,4.28
2022-08-11T04:06:32.097Z,4.63
2022-08-11T04:09:55.355Z,4.17
2022-08-11T04:12:51.578Z,4.63
2022-08-11T04:16:11.339Z,3.97
2022-08-11T04:19:38.397Z,4.70
2022-08-11T04:23:07.615Z,4.50
2022-08-11T04:26:18.862Z,4.28
2022-08-11T04:30:00.989Z,4.30
2022-08-11T04:33:09.163Z,4.10
2022-08-11T04:36:21.173Z,3.95
2022-08-11T04:39:20.073Z,4.43
2022-08-11T04:42:50.731Z,4.18
2022-08-11T04:46:06.470Z,5.45
2022-08-11T04:50:00.129Z,3.78
2022-08-11T04:53:30.569Z,4.32
2022-08-11T04:56:44.749Z,4.45
2022-08-11T05:00:16.786Z,5.10
2022-08-11T05:03:42.509Z,4.40
2022-08-11T05:07:09.625Z,4.75
2022-08-11T05:10:13.399Z,5.32
2022-08-11T05:13:28.777Z,5.37
2022-08-11T05:16:47.411Z,4.68
2022-08-11T05:19:58.807Z,4.15
2022-08-11T05:23:10.479Z,4.40
2022-08-11T05:26:46.698Z,4.65
2022-08-11T05:30:03.062Z,4.03
2022-08-11T05:33:19.586Z,4.90
2022-08-11T05:36:52.000Z,4.33
2022-08-11T05:40:08.410Z,4.50
2022-08-11T05:43:21.051Z,4.77
2022-08-11T05:46:31.350Z,4.20
2022-08-11T05:49:42.496Z,4.67
2022-08-11T05:52:57.436Z,4.30
2022-08-11T05:56:09.817Z,4.67
2022-08-11T05:58:59.879Z,4.47
2022-08-11T06:01:34.246Z,4.30
2022-08-11T06:04:16.821Z,4.23
2022-08-11T06:07:02.897Z,4.90
2022-08-11T06:09:44.317Z,4.23
2022-08-11T06:12:25.654Z,4.33
2022-08-11T06:15:13.948Z,3.80
2022-08-11T06:17:48.103Z,3.60
2022-08-11T06:20:25.489Z,3.63
2022-08-11T06:23:02.270Z,3.50
2022-08-11T06:25:37.600Z,3.30
2022-08-11T06:28:10.440Z,3.70
2022-08-11T06:30:47.217Z,3.40
2022-08-11T06:33:29.458Z,3.20
2022-08-11T06:36:14.771Z,3.40
2022-08-11T06:39:12.964Z,3.10
2022-08-11T06:42:06.478Z,3.47
2022-08-11T06:45:00.392Z,3.70
2022-08-11T06:47:53.236Z,3.30
2022-08-11T06:50:46.356Z,3.43
2022-08-11T06:54:03.511Z,3.20
2022-08-11T06:57:28.791Z,3.03
2022-08-11T07:00:32.945Z,3.57
2022-08-11T07:03:16.541Z,3.50
2022-08-11T07:05:54.545Z,3.43
2022-08-11T07:09:03.961Z,2.83
2022-08-11T07:12:19.041Z,2.60
2022-08-11T07:16:11.613Z,3.37
2022-08-11T07:18:46.471Z,3.23
2022-08-11T07:22:03.735Z,3.07
2022-08-11T07:25:21.777Z,2.70
2022-08-11T07:28:43.630Z,2.97
2022-08-11T07:31:42.047Z,3.20
2022-08-11T07:34:23.070Z,3.00
2022-08-11T07:37:04.048Z,2.87
2022-08-11T07:39:44.401Z,3.03
2022-08-11T07:42:26.770Z,2.93
2022-08-11T07:45:25.126Z,3.30
2022-08-11T07:48:36.551Z,3.27
2022-08-11T07:51:46.799Z,3.10
2022-08-11T07:54:39.500Z,3.00
2022-08-11T07:58:14.031Z,4.23
2022-08-11T08:01:34.940Z,3.00
2022-08-11T08:04:47.491Z,3.17
2022-08-11T08:07:57.858Z,3.13
2022-08-11T08:11:08.978Z,3.40
2022-08-11T08:14:20.192Z,3.00
2022-08-11T08:17:31.048Z,3.03
2022-08-11T08:20:26.692Z,2.80
2022-08-11T08:23:08.441Z,2.80
2022-08-11T08:25:43.325Z,3.13
2022-08-11T08:28:17.547Z,2.80
2022-08-11T08:30:52.496Z,2.80
2022-08-11T08:33:29.932Z,3.07
2022-08-11T08:36:15.224Z,2.93
2022-08-11T08:39:08.324Z,3.27
2022-08-11T08:41:41.095Z,2.90
2022-08-11T08:47:37.539Z,3.07
2022-08-11T08:50:16.358Z,2.90
2022-08-11T08:53:04.058Z,2.60
2022-08-11T08:55:39.460Z,3.13
2022-08-11T08:58:19.225Z,2.80
2022-08-11T09:00:54.686Z,2.90
2022-08-11T09:04:06.943Z,2.87
2022-08-11T09:06:21.117Z,2.10
2022-08-11T09:08:55.280Z,2.40
2022-08-11T09:11:46.491Z,3.57
2022-08-11T09:14:25.042Z,2.90
2022-08-11T09:17:21.165Z,2.93
2022-08-11T09:20:09.650Z,3.03
2022-08-11T09:26:37.788Z,2.63
2022-08-11T09:29:31.784Z,2.57
2022-08-11T09:32:07.197Z,2.63
2022-08-11T09:34:39.991Z,2.67
2022-08-11T09:37:55.815Z,3.07
2022-08-11T09:40:46.840Z,2.60
2022-08-11T09:43:47.801Z,2.80
2022-08-11T09:46:41.614Z,2.40
2022-08-11T09:49:14.327Z,2.97
2022-08-11T09:52:05.061Z,2.57
2022-08-11T09:54:48.274Z,2.53
2022-08-11T09:57:41.418Z,2.30
2022-08-11T10:00:38.100Z,2.70
2022-08-11T10:03:19.210Z,2.60
2022-08-11T10:06:16.921Z,2.13
2022-08-11T10:09:09.707Z,2.47
2022-08-11T10:11:43.757Z,2.50
2022-08-11T10:14:52.826Z,2.50
2022-08-11T10:18:06.329Z,2.40
2022-08-11T10:21:11.733Z,2.40
2022-08-11T10:24:25.489Z,2.60
2022-08-11T10:27:17.977Z,2.27
2022-08-11T10:30:09.886Z,2.70
2022-08-11T10:33:36.916Z,2.17
2022-08-11T10:36:32.947Z,2.33
2022-08-11T10:39:10.698Z,2.17
2022-08-11T10:42:09.586Z,2.20
2022-08-11T10:45:29.223Z,2.00
2022-08-11T10:48:26.776Z,2.53
2022-08-11T10:51:13.551Z,2.50
2022-08-11T10:54:12.361Z,2.70
2022-08-11T10:57:23.733Z,2.13
2022-08-11T11:00:16.498Z,2.10
2022-08-11T11:03:22.027Z,2.20
2022-08-11T11:06:12.548Z,2.07
2022-08-11T11:09:00.084Z,2.40
2022-08-11T11:12:01.318Z,2.50
2022-08-11T11:15:17.731Z,2.53
2022-08-11T11:18:19.823Z,2.20
2022-08-11T11:21:06.698Z,1.83
2022-08-11T11:24:02.901Z,2.33
2022-08-11T11:27:12.243Z,2.67
2022-08-11T11:30:12.437Z,2.60
2022-08-11T11:33:02.330Z,2.30
2022-08-11T11:36:11.310Z,2.60
2022-08-11T11:38:57.610Z,2.13
2022-08-11T11:41:30.853Z,2.50
2022-08-11T11:44:03.495Z,2.37
2022-08-11T11:46:38.604Z,2.30
2022-08-11T11:52:00.739Z,2.00
2022-08-11T11:54:36.573Z,2.30
2022-08-11T11:57:33.336Z,2.30
2022-08-11T12:00:43.732Z,2.40
2022-08-11T12:03:37.933Z,2.13
2022-08-11T12:06:14.209Z,2.20
2022-08-11T12:08:50.832Z,2.10
2022-08-11T12:11:46.421Z,2.10
2022-08-11T12:14:38.250Z,2.30
2022-08-11T12:17:10.503Z,2.47
2022-08-11T12:19:48.322Z,2.47
2022-08-11T12:22:39.419Z,2.33
2022-08-11T12:26:04.457Z,2.07
2022-08-11T12:29:02.147Z,2.10
2022-08-11T12:31:38.133Z,2.07
2022-08-11T12:34:17.768Z,2.37
2022-08-11T12:36:57.616Z,2.57
2022-08-11T12:40:16.784Z,2.80
2022-08-11T12:43:42.868Z,2.30
2022-08-11T12:46:42.813Z,2.70
2022-08-11T12:49:44.727Z,2.10
2022-08-11T12:52:49.109Z,2.13
2022-08-11T12:56:07.409Z,2.10
2022-08-11T12:59:16.081Z,2.30
2022-08-11T13:02:31.130Z,2.20
2022-08-11T13:05:27.617Z,2.30
2022-08-11T13:08:02.759Z,2.00
2022-08-11T13:10:55.629Z,2.90
2022-08-11T13:13:53.539Z,2.10
2022-08-11T13:16:32.265Z,2.00
2022-08-11T13:19:30.522Z,1.90
2022-08-11T13:22:05.344Z,1.90
2022-08-11T13:24:40.512Z,1.70
2022-08-11T13:27:12.829Z,2.03
2022-08-11T13:29:49.071Z,2.43
2022-08-11T13:32:26.318Z,2.23
2022-08-11T13:34:59.294Z,2.20
2022-08-11T13:38:27.109Z,2.10
2022-08-11T13:40:45.881Z,2.00
2022-08-11T13:43:21.641Z,2.40
2022-08-11T13:46:15.246Z,1.63
2022-08-11T13:49:00.508Z,2.10
2022-08-11T13:51:35.178Z,1.87
2022-08-11T13:54:10.230Z,2.10
2022-08-11T13:56:56.434Z,1.70
2022-08-11T13:59:32.801Z,2.03
2022-08-11T14:02:22.204Z,1.90
2022-08-11T14:05:11.880Z,2.10
2022-08-11T14:07:59.253Z,1.70
2022-08-11T14:10:37.480Z,2.00
2022-08-11T14:13:41.200Z,1.70
2022-08-11T14:16:30.907Z,1.70
2022-08-11T14:19:11.249Z,2.07
2022-08-11T14:22:07.879Z,1.87
2022-08-11T14:24:49.437Z,1.90
2022-08-11T14:27:39.078Z,2.07
2022-08-11T14:30:42.715Z,2.00
2022-08-11T14:33:58.389Z,2.03
2022-08-11T14:36:39.014Z,2.00
2022-08-11T14:39:19.698Z,1.90
2022-08-11T14:42:19.488Z,1.70
2022-08-11T14:45:57.406Z,1.70
2022-08-11T14:48:46.094Z,2.10
2022-08-11T14:51:19.468Z,2.30
2022-08-11T14:54:17.822Z,2.27
2022-08-11T14:57:10.316Z,1.93
2022-08-11T14:59:44.840Z,1.93
2022-08-11T15:02:38.099Z,1.90
2022-08-11T15:05:36.598Z,1.87
2022-08-11T15:08:48.749Z,1.97
2022-08-11T15:11:50.724Z,1.97
2022-08-11T15:15:05.104Z,2.13
2022-08-11T15:18:04.345Z,2.03
2022-08-11T15:20:56.548Z,2.20
2022-08-11T15:24:06.788Z,1.77
2022-08-11T15:27:14.862Z,2.10
2022-08-11T15:30:32.427Z,2.17
2022-08-11T15:33:47.191Z,2.13
2022-08-11T15:36:59.537Z,2.07
2022-08-11T15:40:32.238Z,2.10
2022-08-11T15:44:04.466Z,1.90
2022-08-11T15:47:01.561Z,1.90
2022-08-11T15:50:11.361Z,1.80
2022-08-11T15:52:41.043Z,1.70
2022-08-11T15:55:34.633Z,2.17
2022-08-11T15:58:28.755Z,2.20
2022-08-11T16:01:41.837Z,1.97
2022-08-11T16:04:37.021Z,2.27
2022-08-11T16:07:12.981Z,2.10
2022-08-11T16:09:54.129Z,2.03
2022-08-11T16:12:40.648Z,2.50
2022-08-11T16:15:35.117Z,2.10
2022-08-11T16:18:43.718Z,2.13
2022-08-11T16:21:35.278Z,2.20
2022-08-11T16:27:03.921Z,2.00
2022-08-11T16:27:14.191Z,2.00
2022-08-11T16:29:50.701Z,2.43
2022-08-11T16:32:25.744Z,2.20
2022-08-11T16:35:28.132Z,1.90
2022-08-11T16:38:35.766Z,2.20
2022-08-11T16:41:15.925Z,2.10
2022-08-11T16:44:32.850Z,2.63
2022-08-11T16:48:33.200Z,2.00
2022-08-11T16:50:22.458Z,2.40
2022-08-11T16:52:54.732Z,2.00
2022-08-11T16:55:51.585Z,2.33
2022-08-11T16:58:43.427Z,1.90
2022-08-11T17:01:36.956Z,2.63
2022-08-11T17:04:37.858Z,2.27
2022-08-11T17:07:49.325Z,2.13
2022-08-11T17:11:07.793Z,2.13
2022-08-11T17:14:06.263Z,2.40
2022-08-11T17:16:49.187Z,2.87
2022-08-11T17:20:40.659Z,1.77
2022-08-11T17:22:40.735Z,2.50
2022-08-11T17:25:59.127Z,2.07
2022-08-11T17:28:26.895Z,2.20
2022-08-11T17:31:22.669Z,2.17
2022-08-11T17:34:33.764Z,2.03
2022-08-11T17:37:27.005Z,2.17
2022-08-11T17:40:03.057Z,2.20
2022-08-11T17:42:58.402Z,2.60
2022-08-11T17:46:05.450Z,2.23
2022-08-11T17:48:51.189Z,2.47
2022-08-11T17:51:44.405Z,2.20
2022-08-11T17:54:56.282Z,2.43
2022-08-11T17:58:07.601Z,2.17
2022-08-11T18:01:02.061Z,2.50
2022-08-11T18:03:56.463Z,2.50
2022-08-11T18:06:34.786Z,2.47
2022-08-11T18:09:34.205Z,2.33
2022-08-11T18:12:44.406Z,2.67
2022-08-11T18:15:58.890Z,2.10
2022-08-11T18:19:10.841Z,2.07
2022-08-11T18:22:31.824Z,2.23
2022-08-11T18:25:57.077Z,2.47
2022-08-11T18:29:14.320Z,2.47
2022-08-11T18:32:46.133Z,2.07
2022-08-11T18:35:57.469Z,2.70
2022-08-11T18:39:10.487Z,2.60
2022-08-11T18:42:29.729Z,2.47
2022-08-11T18:45:46.109Z,2.83
2022-08-11T18:49:00.763Z,2.43
2022-08-11T18:52:13.556Z,2.60
2022-08-11T18:55:29.514Z,2.73
2022-08-11T18:58:48.322Z,2.60
2022-08-11T19:01:59.785Z,2.17
2022-08-11T19:05:11.037Z,3.40
2022-08-11T19:08:22.636Z,2.87
2022-08-11T19:11:34.451Z,2.63
2022-08-11T19:14:55.605Z,2.70
2022-08-11T19:18:07.402Z,3.17
2022-08-11T19:21:18.756Z,2.83
2022-08-11T19:24:29.598Z,2.60
2022-08-11T19:27:41.972Z,2.43
2022-08-11T19:30:53.666Z,2.93
2022-08-11T19:34:10.654Z,2.77
2022-08-11T19:37:25.415Z,2.60
2022-08-11T19:40:36.545Z,2.77
2022-08-11T19:43:49.939Z,2.70
2022-08-11T19:47:06.805Z,2.70
2022-08-11T19:50:24.156Z,2.30
2022-08-11T19:53:36.336Z,2.53
2022-08-11T19:56:47.825Z,2.60
2022-08-11T20:00:03.416Z,2.90
2022-08-11T20:03:13.740Z,2.43
2022-08-11T20:06:27.596Z,2.53
2022-08-11T20:10:05.199Z,2.77
2022-08-11T20:13:10.271Z,2.80
2022-08-11T20:16:22.228Z,2.87
2022-08-11T20:19:55.586Z,2.70
2022-08-11T20:23:06.729Z,2.90
2022-08-11T20:26:34.832Z,2.70
2022-08-11T20:29:48.659Z,2.17
2022-08-11T20:33:01.143Z,2.33
2022-08-11T20:36:12.474Z,2.47
2022-08-11T20:39:23.848Z,2.87
2022-08-11T20:42:36.724Z,3.37
2022-08-11T20:45:52.101Z,2.90
2022-08-11T20:49:08.236Z,2.93
2022-08-11T20:52:18.878Z,3.50
2022-08-11T20:55:51.205Z,2.87
2022-08-11T20:59:17.620Z,2.63
2022-08-11T21:02:34.356Z,2.67
2022-08-11T21:06:10.383Z,2.63
2022-08-11T21:09:20.586Z,2.87
2022-08-11T21:12:35.147Z,2.80
2022-08-11T21:16:02.896Z,3.13
2022-08-11T21:19:54.494Z,3.00
2022-08-11T21:23:05.873Z,2.90
2022-08-11T21:26:25.733Z,3.07
2022-08-11T21:29:37.900Z,3.00
2022-08-11T21:32:50.136Z,2.70
2022-08-11T21:36:00.837Z,2.67
2022-08-11T21:39:11.519Z,2.83
2022-08-11T21:42:23.774Z,3.10
2022-08-11T21:45:36.711Z,3.17
2022-08-11T21:48:47.982Z,2.60
2022-08-11T21:51:58.200Z,3.83
2022-08-11T21:55:09.345Z,2.90
2022-08-11T21:58:21.007Z,3.00
2022-08-11T22:01:34.455Z,2.90
2022-08-11T22:04:45.982Z,2.93
2022-08-11T22:07:57.973Z,2.80
2022-08-11T22:11:08.935Z,3.23
2022-08-11T22:14:23.215Z,3.10
2022-08-11T22:17:33.520Z,2.73
2022-08-11T22:20:46.454Z,2.77
2022-08-11T22:23:59.186Z,2.73
2022-08-11T22:27:09.445Z,3.37
2022-08-11T22:30:19.859Z,2.60
2022-08-11T22:33:31.133Z,2.87
2022-08-11T22:36:42.050Z,2.70
2022-08-11T22:39:59.602Z,2.67
2022-08-11T22:43:12.678Z,2.83
2022-08-11T22:46:23.438Z,3.10
2022-08-11T22:49:56.117Z,3.00
2022-08-11T22:53:09.880Z,3.30
2022-08-11T22:56:19.873Z,3.17
2022-08-11T22:59:44.648Z,2.80
2022-08-11T23:02:56.201Z,2.77
2022-08-11T23:06:06.756Z,3.00
2022-08-11T23:09:18.623Z,3.00
2022-08-11T23:12:29.544Z,2.70
2022-08-11T23:15:40.828Z,3.20
2022-08-11T23:18:53.197Z,3.20
2022-08-11T23:22:05.685Z,2.97
2022-08-11T23:25:17.748Z,2.83
2022-08-11T23:28:31.988Z,2.93
2022-08-11T23:31:51.180Z,3.17
2022-08-11T23:35:39.884Z,3.23
2022-08-11T23:38:35.766Z,3.27
2022-08-11T23:41:46.630Z,3.23
2022-08-11T23:44:56.701Z,2.70
2022-08-11T23:48:09.610Z,3.00
2022-08-11T23:51:21.103Z,2.87
2022-08-11T23:54:37.188Z,2.77
2022-08-11T23:57:48.992Z,2.70
